sensor_id;sensor_type;location;lat;lon;timestamp;P1;durP1;ratioP1;P2;durP2;ratioP2
15764;SDS011;7983;50.744;7.086;2022-12-20T00:01:17;1.65;;;1.30;;
15764;SDS011;7983;50.744;7.086;2022-12-20T00:03:50;1.42;;;1.25;;
15764;SDS011;7983;50.744;7.086;2022-12-20T00:06:17;2.05;;;1.10;;
15764;SDS011;7983;50.744;7.086;2022-12-20T00:08:44;2.55;;;1.20;;
15764;SDS011;7983;50.744;7.086;2022-12-20T00:11:10;2.53;;;1.20;;
15764;SDS011;7983;50.744;7.086;2022-12-20T00:13:36;1.25;;;1.10;;
15764;SDS011;7983;50.744;7.086;2022-12-20T00:16:08;2.22;;;1.40;;
15764;SDS011;7983;50.744;7.086;2022-12-20T00:18:42;1.52;;;1.20;;
15764;SDS011;7983;50.744;7.086;2022-12-20T00:21:10;1.48;;;1.20;;
15764;SDS011;7983;50.744;7.086;2022-12-20T00:23:37;1.95;;;1.30;;
15764;SDS011;7983;50.744;7.086;2022-12-20T00:28:33;3.42;;;1.40;;
15764;SDS011;7983;50.744;7.086;2022-12-20T00:31:00;2.33;;;1.15;;
15764;SDS011;7983;50.744;7.086;2022-12-20T00:33:29;2.95;;;1.40;;
15764;SDS011;7983;50.744;7.086;2022-12-20T00:35:57;3.90;;;1.33;;
15764;SDS011;7983;50.744;7.086;2022-12-20T00:38:23;1.52;;;1.27;;
15764;SDS011;7983;50.744;7.086;2022-12-20T00:41:03;1.50;;;1.20;;
15764;SDS011;7983;50.744;7.086;2022-12-20T00:43:29;2.67;;;1.45;;
15764;SDS011;7983;50.744;7.086;2022-12-20T00:45:57;2.00;;;1.10;;
15764;SDS011;7983;50.744;7.086;2022-12-20T00:48:23;1.75;;;1.50;;
15764;SDS011;7983;50.744;7.086;2022-12-20T00:50:49;1.73;;;1.20;;
15764;SDS011;7983;50.744;7.086;2022-12-20T00:53:15;1.40;;;1.20;;
15764;SDS011;7983;50.744;7.086;2022-12-20T00:55:42;1.63;;;1.30;;
15764;SDS011;7983;50.744;7.086;2022-12-20T00:58:09;1.75;;;1.20;;
15764;SDS011;7983;50.744;7.086;2022-12-20T01:00:40;3.05;;;1.95;;
15764;SDS011;7983;50.744;7.086;2022-12-20T01:03:06;2.45;;;1.60;;
15764;SDS011;7983;50.744;7.086;2022-12-20T01:05:31;3.45;;;1.88;;
15764;SDS011;7983;50.744;7.086;2022-12-20T01:07:58;2.35;;;1.70;;
15764;SDS011;7983;50.744;7.086;2022-12-20T01:10:24;2.33;;;1.70;;
15764;SDS011;7983;50.744;7.086;2022-12-20T01:12:50;1.95;;;1.45;;
15764;SDS011;7983;50.744;7.086;2022-12-20T01:15:15;3.33;;;1.42;;
15764;SDS011;7983;50.744;7.086;2022-12-20T01:17:41;2.95;;;1.40;;
15764;SDS011;7983;50.744;7.086;2022-12-20T01:20:09;2.03;;;1.50;;
15764;SDS011;7983;50.744;7.086;2022-12-20T01:22:35;2.38;;;1.63;;
15764;SDS011;7983;50.744;7.086;2022-12-20T01:25:01;2.08;;;1.55;;
15764;SDS011;7983;50.744;7.086;2022-12-20T01:27:29;2.42;;;1.52;;
15764;SDS011;7983;50.744;7.086;2022-12-20T01:29:57;3.65;;;1.67;;
15764;SDS011;7983;50.744;7.086;2022-12-20T01:32:27;2.55;;;2.10;;
15764;SDS011;7983;50.744;7.086;2022-12-20T01:34:55;1.77;;;1.48;;
15764;SDS011;7983;50.744;7.086;2022-12-20T01:37:23;2.35;;;1.90;;
15764;SDS011;7983;50.744;7.086;2022-12-20T01:39:56;2.50;;;1.90;;
15764;SDS011;7983;50.744;7.086;2022-12-20T01:42:21;3.10;;;1.90;;
15764;SDS011;7983;50.744;7.086;2022-12-20T01:44:50;3.08;;;2.35;;
15764;SDS011;7983;50.744;7.086;2022-12-20T01:47:20;2.55;;;1.80;;
15764;SDS011;7983;50.744;7.086;2022-12-20T01:49:53;2.42;;;1.98;;
15764;SDS011;7983;50.744;7.086;2022-12-20T01:52:28;2.85;;;2.25;;
15764;SDS011;7983;50.744;7.086;2022-12-20T01:55:06;3.00;;;1.95;;
15764;SDS011;7983;50.744;7.086;2022-12-20T01:57:45;3.28;;;2.22;;
15764;SDS011;7983;50.744;7.086;2022-12-20T02:00:26;2.53;;;2.05;;
15764;SDS011;7983;50.744;7.086;2022-12-20T02:02:52;2.90;;;1.98;;
15764;SDS011;7983;50.744;7.086;2022-12-20T02:05:20;2.75;;;2.03;;
15764;SDS011;7983;50.744;7.086;2022-12-20T02:07:50;2.60;;;1.85;;
15764;SDS011;7983;50.744;7.086;2022-12-20T02:10:18;2.65;;;1.80;;
15764;SDS011;7983;50.744;7.086;2022-12-20T02:12:46;2.63;;;1.83;;
15764;SDS011;7983;50.744;7.086;2022-12-20T02:18:18;2.40;;;1.90;;
15764;SDS011;7983;50.744;7.086;2022-12-20T02:31:24;4.72;;;2.30;;
15764;SDS011;7983;50.744;7.086;2022-12-20T02:33:53;4.57;;;1.98;;
15764;SDS011;7983;50.744;7.086;2022-12-20T02:36:21;2.72;;;2.00;;
15764;SDS011;7983;50.744;7.086;2022-12-20T02:38:49;4.45;;;2.30;;
15764;SDS011;7983;50.744;7.086;2022-12-20T02:41:19;3.03;;;2.17;;
15764;SDS011;7983;50.744;7.086;2022-12-20T02:44:11;3.55;;;2.10;;
15764;SDS011;7983;50.744;7.086;2022-12-20T02:46:59;2.40;;;2.00;;
15764;SDS011;7983;50.744;7.086;2022-12-20T02:49:30;3.22;;;2.22;;
15764;SDS011;7983;50.744;7.086;2022-12-20T02:51:58;3.60;;;2.10;;
15764;SDS011;7983;50.744;7.086;2022-12-20T02:54:25;3.50;;;2.05;;
15764;SDS011;7983;50.744;7.086;2022-12-20T02:59:33;4.00;;;2.00;;
15764;SDS011;7983;50.744;7.086;2022-12-20T03:02:05;2.42;;;2.05;;
15764;SDS011;7983;50.744;7.086;2022-12-20T03:04:35;4.00;;;2.10;;
15764;SDS011;7983;50.744;7.086;2022-12-20T03:07:06;3.92;;;2.25;;
15764;SDS011;7983;50.744;7.086;2022-12-20T03:09:38;4.10;;;2.60;;
15764;SDS011;7983;50.744;7.086;2022-12-20T03:12:08;3.20;;;2.47;;
15764;SDS011;7983;50.744;7.086;2022-12-20T03:14:38;3.47;;;2.20;;
15764;SDS011;7983;50.744;7.086;2022-12-20T03:17:07;3.38;;;2.03;;
15764;SDS011;7983;50.744;7.086;2022-12-20T03:19:32;3.15;;;2.15;;
15764;SDS011;7983;50.744;7.086;2022-12-20T03:21:59;2.55;;;2.03;;
15764;SDS011;7983;50.744;7.086;2022-12-20T03:24:27;2.80;;;2.13;;
15764;SDS011;7983;50.744;7.086;2022-12-20T03:26:52;3.78;;;2.13;;
15764;SDS011;7983;50.744;7.086;2022-12-20T03:29:20;2.25;;;2.00;;
15764;SDS011;7983;50.744;7.086;2022-12-20T03:31:46;3.38;;;1.80;;
15764;SDS011;7983;50.744;7.086;2022-12-20T03:34:11;3.22;;;1.95;;
15764;SDS011;7983;50.744;7.086;2022-12-20T03:36:37;3.35;;;2.13;;
15764;SDS011;7983;50.744;7.086;2022-12-20T03:39:05;3.28;;;2.10;;
15764;SDS011;7983;50.744;7.086;2022-12-20T03:41:31;3.22;;;1.90;;
15764;SDS011;7983;50.744;7.086;2022-12-20T03:43:56;2.00;;;1.75;;
15764;SDS011;7983;50.744;7.086;2022-12-20T03:46:22;2.08;;;1.77;;
15764;SDS011;7983;50.744;7.086;2022-12-20T03:48:47;1.75;;;1.63;;
15764;SDS011;7983;50.744;7.086;2022-12-20T03:51:13;2.67;;;1.98;;
15764;SDS011;7983;50.744;7.086;2022-12-20T03:53:39;2.92;;;1.65;;
15764;SDS011;7983;50.744;7.086;2022-12-20T03:56:04;2.83;;;1.95;;
15764;SDS011;7983;50.744;7.086;2022-12-20T03:58:30;2.47;;;1.83;;
15764;SDS011;7983;50.744;7.086;2022-12-20T04:00:58;2.50;;;1.70;;
15764;SDS011;7983;50.744;7.086;2022-12-20T04:03:26;2.30;;;1.80;;
15764;SDS011;7983;50.744;7.086;2022-12-20T04:05:54;2.45;;;1.90;;
15764;SDS011;7983;50.744;7.086;2022-12-20T04:08:20;3.15;;;1.98;;
15764;SDS011;7983;50.744;7.086;2022-12-20T04:10:45;2.50;;;1.70;;
15764;SDS011;7983;50.744;7.086;2022-12-20T04:13:30;2.33;;;1.60;;
15764;SDS011;7983;50.744;7.086;2022-12-20T04:15:58;2.85;;;1.50;;
15764;SDS011;7983;50.744;7.086;2022-12-20T04:18:23;2.85;;;1.75;;
15764;SDS011;7983;50.744;7.086;2022-12-20T04:20:52;2.90;;;2.15;;
15764;SDS011;7983;50.744;7.086;2022-12-20T04:23:18;2.35;;;1.75;;
15764;SDS011;7983;50.744;7.086;2022-12-20T04:25:46;2.92;;;2.00;;
15764;SDS011;7983;50.744;7.086;2022-12-20T04:28:14;2.15;;;1.80;;
15764;SDS011;7983;50.744;7.086;2022-12-20T04:30:40;3.00;;;1.75;;
15764;SDS011;7983;50.744;7.086;2022-12-20T04:33:05;3.60;;;1.75;;
15764;SDS011;7983;50.744;7.086;2022-12-20T04:35:31;4.13;;;2.13;;
15764;SDS011;7983;50.744;7.086;2022-12-20T04:38:02;2.70;;;2.00;;
15764;SDS011;7983;50.744;7.086;2022-12-20T04:40:28;2.45;;;2.00;;
15764;SDS011;7983;50.744;7.086;2022-12-20T04:42:54;3.97;;;1.88;;
15764;SDS011;7983;50.744;7.086;2022-12-20T04:45:21;2.47;;;1.70;;
15764;SDS011;7983;50.744;7.086;2022-12-20T04:47:47;2.70;;;1.95;;
15764;SDS011;7983;50.744;7.086;2022-12-20T04:50:15;3.28;;;2.35;;
15764;SDS011;7983;50.744;7.086;2022-12-20T04:52:40;2.67;;;1.83;;
15764;SDS011;7983;50.744;7.086;2022-12-20T04:55:25;2.42;;;1.92;;
15764;SDS011;7983;50.744;7.086;2022-12-20T04:57:51;2.17;;;1.70;;
15764;SDS011;7983;50.744;7.086;2022-12-20T05:00:16;3.63;;;2.20;;
15764;SDS011;7983;50.744;7.086;2022-12-20T05:02:42;2.92;;;2.38;;
15764;SDS011;7983;50.744;7.086;2022-12-20T05:05:10;3.08;;;2.10;;
15764;SDS011;7983;50.744;7.086;2022-12-20T05:07:36;2.75;;;1.83;;
15764;SDS011;7983;50.744;7.086;2022-12-20T05:10:02;3.17;;;2.13;;
15764;SDS011;7983;50.744;7.086;2022-12-20T05:12:30;2.20;;;1.70;;
15764;SDS011;7983;50.744;7.086;2022-12-20T05:14:58;2.40;;;2.20;;
15764;SDS011;7983;50.744;7.086;2022-12-20T05:17:26;1.48;;;1.38;;
15764;SDS011;7983;50.744;7.086;2022-12-20T05:19:52;2.72;;;1.70;;
15764;SDS011;7983;50.744;7.086;2022-12-20T05:22:17;1.65;;;1.50;;
15764;SDS011;7983;50.744;7.086;2022-12-20T05:25:04;1.73;;;1.55;;
15764;SDS011;7983;50.744;7.086;2022-12-20T05:27:48;2.67;;;2.10;;
15764;SDS011;7983;50.744;7.086;2022-12-20T05:30:14;3.63;;;1.83;;
15764;SDS011;7983;50.744;7.086;2022-12-20T05:32:42;3.15;;;1.80;;
15764;SDS011;7983;50.744;7.086;2022-12-20T05:35:10;2.40;;;1.95;;
15764;SDS011;7983;50.744;7.086;2022-12-20T05:37:36;2.10;;;1.70;;
15764;SDS011;7983;50.744;7.086;2022-12-20T05:40:01;1.90;;;1.50;;
15764;SDS011;7983;50.744;7.086;2022-12-20T05:42:28;2.95;;;1.75;;
15764;SDS011;7983;50.744;7.086;2022-12-20T05:44:54;3.25;;;1.80;;
15764;SDS011;7983;50.744;7.086;2022-12-20T05:47:22;2.63;;;1.90;;
15764;SDS011;7983;50.744;7.086;2022-12-20T05:49:47;2.75;;;2.05;;
15764;SDS011;7983;50.744;7.086;2022-12-20T05:52:15;3.60;;;2.25;;
15764;SDS011;7983;50.744;7.086;2022-12-20T05:54:41;3.70;;;2.08;;
15764;SDS011;7983;50.744;7.086;2022-12-20T05:57:06;2.30;;;1.80;;
15764;SDS011;7983;50.744;7.086;2022-12-20T05:59:32;2.83;;;1.90;;
15764;SDS011;7983;50.744;7.086;2022-12-20T06:01:58;2.17;;;1.50;;
15764;SDS011;7983;50.744;7.086;2022-12-20T06:04:23;2.65;;;1.48;;
15764;SDS011;7983;50.744;7.086;2022-12-20T06:06:51;2.35;;;1.67;;
15764;SDS011;7983;50.744;7.086;2022-12-20T06:09:23;2.15;;;1.40;;
15764;SDS011;7983;50.744;7.086;2022-12-20T06:11:49;1.98;;;1.63;;
15764;SDS011;7983;50.744;7.086;2022-12-20T06:14:18;2.50;;;1.75;;
15764;SDS011;7983;50.744;7.086;2022-12-20T06:16:46;2.97;;;1.95;;
15764;SDS011;7983;50.744;7.086;2022-12-20T06:19:12;2.70;;;1.60;;
15764;SDS011;7983;50.744;7.086;2022-12-20T06:21:38;7.05;;;2.10;;
15764;SDS011;7983;50.744;7.086;2022-12-20T06:24:04;2.17;;;1.60;;
15764;SDS011;7983;50.744;7.086;2022-12-20T06:26:30;2.55;;;1.73;;
15764;SDS011;7983;50.744;7.086;2022-12-20T06:29:00;4.18;;;1.73;;
15764;SDS011;7983;50.744;7.086;2022-12-20T06:31:36;3.20;;;1.77;;
15764;SDS011;7983;50.744;7.086;2022-12-20T06:34:04;2.63;;;1.75;;
15764;SDS011;7983;50.744;7.086;2022-12-20T06:36:30;2.72;;;1.40;;
15764;SDS011;7983;50.744;7.086;2022-12-20T06:38:56;2.03;;;1.80;;
15764;SDS011;7983;50.744;7.086;2022-12-20T06:41:21;2.35;;;1.67;;
15764;SDS011;7983;50.744;7.086;2022-12-20T06:43:47;2.88;;;1.52;;
15764;SDS011;7983;50.744;7.086;2022-12-20T06:46:15;2.70;;;1.83;;
15764;SDS011;7983;50.744;7.086;2022-12-20T06:48:43;2.83;;;1.85;;
15764;SDS011;7983;50.744;7.086;2022-12-20T06:51:08;3.65;;;2.10;;
15764;SDS011;7983;50.744;7.086;2022-12-20T06:53:35;2.97;;;1.83;;
15764;SDS011;7983;50.744;7.086;2022-12-20T06:56:00;3.20;;;1.90;;
15764;SDS011;7983;50.744;7.086;2022-12-20T06:58:26;2.70;;;1.88;;
15764;SDS011;7983;50.744;7.086;2022-12-20T07:00:53;3.97;;;2.08;;
15764;SDS011;7983;50.744;7.086;2022-12-20T07:03:23;3.75;;;2.17;;
15764;SDS011;7983;50.744;7.086;2022-12-20T07:05:52;3.13;;;2.15;;
15764;SDS011;7983;50.744;7.086;2022-12-20T07:08:18;3.47;;;2.22;;
15764;SDS011;7983;50.744;7.086;2022-12-20T07:10:47;3.38;;;1.92;;
15764;SDS011;7983;50.744;7.086;2022-12-20T07:13:13;3.00;;;2.13;;
15764;SDS011;7983;50.744;7.086;2022-12-20T07:15:38;3.03;;;2.05;;
15764;SDS011;7983;50.744;7.086;2022-12-20T07:18:04;4.28;;;2.30;;
15764;SDS011;7983;50.744;7.086;2022-12-20T07:20:31;3.75;;;2.55;;
15764;SDS011;7983;50.744;7.086;2022-12-20T07:22:56;2.53;;;2.17;;
15764;SDS011;7983;50.744;7.086;2022-12-20T07:25:22;3.75;;;2.60;;
15764;SDS011;7983;50.744;7.086;2022-12-20T07:27:49;2.63;;;1.92;;
15764;SDS011;7983;50.744;7.086;2022-12-20T07:30:18;2.67;;;1.85;;
15764;SDS011;7983;50.744;7.086;2022-12-20T07:32:47;2.92;;;1.80;;
15764;SDS011;7983;50.744;7.086;2022-12-20T07:35:15;2.50;;;1.88;;
15764;SDS011;7983;50.744;7.086;2022-12-20T07:37:43;2.65;;;1.70;;
15764;SDS011;7983;50.744;7.086;2022-12-20T07:40:09;2.20;;;1.75;;
15764;SDS011;7983;50.744;7.086;2022-12-20T07:42:35;2.10;;;1.45;;
15764;SDS011;7983;50.744;7.086;2022-12-20T07:45:01;3.13;;;1.70;;
15764;SDS011;7983;50.744;7.086;2022-12-20T07:47:29;2.10;;;1.48;;
15764;SDS011;7983;50.744;7.086;2022-12-20T07:49:55;2.08;;;1.50;;
15764;SDS011;7983;50.744;7.086;2022-12-20T07:52:23;2.33;;;1.50;;
15764;SDS011;7983;50.744;7.086;2022-12-20T07:54:53;3.15;;;1.75;;
15764;SDS011;7983;50.744;7.086;2022-12-20T07:57:29;2.28;;;1.65;;
15764;SDS011;7983;50.744;7.086;2022-12-20T07:59:59;6.75;;;2.22;;
15764;SDS011;7983;50.744;7.086;2022-12-20T08:02:34;3.08;;;1.90;;
15764;SDS011;7983;50.744;7.086;2022-12-20T08:05:06;3.85;;;1.90;;
15764;SDS011;7983;50.744;7.086;2022-12-20T08:07:33;2.47;;;1.80;;
15764;SDS011;7983;50.744;7.086;2022-12-20T08:10:04;3.45;;;1.85;;
15764;SDS011;7983;50.744;7.086;2022-12-20T08:12:35;2.47;;;1.55;;
15764;SDS011;7983;50.744;7.086;2022-12-20T08:15:02;3.47;;;1.80;;
15764;SDS011;7983;50.744;7.086;2022-12-20T08:17:28;3.08;;;1.90;;
15764;SDS011;7983;50.744;7.086;2022-12-20T08:19:54;3.08;;;1.67;;
15764;SDS011;7983;50.744;7.086;2022-12-20T08:22:21;4.57;;;1.75;;
15764;SDS011;7983;50.744;7.086;2022-12-20T08:24:47;2.58;;;1.65;;
15764;SDS011;7983;50.744;7.086;2022-12-20T08:27:12;3.50;;;1.92;;
15764;SDS011;7983;50.744;7.086;2022-12-20T08:29:39;3.35;;;1.88;;
15764;SDS011;7983;50.744;7.086;2022-12-20T08:32:07;3.08;;;1.80;;
15764;SDS011;7983;50.744;7.086;2022-12-20T08:34:34;2.97;;;1.50;;
15764;SDS011;7983;50.744;7.086;2022-12-20T08:36:59;2.58;;;1.80;;
15764;SDS011;7983;50.744;7.086;2022-12-20T08:39:25;2.60;;;1.83;;
15764;SDS011;7983;50.744;7.086;2022-12-20T08:41:55;3.00;;;2.25;;
15764;SDS011;7983;50.744;7.086;2022-12-20T08:44:21;3.45;;;1.75;;
15764;SDS011;7983;50.744;7.086;2022-12-20T08:46:49;3.05;;;1.63;;
15764;SDS011;7983;50.744;7.086;2022-12-20T08:49:15;3.05;;;1.90;;
15764;SDS011;7983;50.744;7.086;2022-12-20T08:51:41;3.40;;;2.00;;
15764;SDS011;7983;50.744;7.086;2022-12-20T08:54:09;3.03;;;2.13;;
15764;SDS011;7983;50.744;7.086;2022-12-20T08:56:35;3.42;;;2.00;;
15764;SDS011;7983;50.744;7.086;2022-12-20T08:59:00;2.63;;;1.60;;
15764;SDS011;7983;50.744;7.086;2022-12-20T09:01:26;3.95;;;1.85;;
15764;SDS011;7983;50.744;7.086;2022-12-20T09:03:54;3.20;;;1.75;;
15764;SDS011;7983;50.744;7.086;2022-12-20T09:06:20;1.80;;;1.55;;
15764;SDS011;7983;50.744;7.086;2022-12-20T09:08:49;3.38;;;1.80;;
15764;SDS011;7983;50.744;7.086;2022-12-20T09:11:22;2.15;;;1.52;;
15764;SDS011;7983;50.744;7.086;2022-12-20T09:13:49;2.45;;;1.50;;
15764;SDS011;7983;50.744;7.086;2022-12-20T09:16:17;2.85;;;1.40;;
15764;SDS011;7983;50.744;7.086;2022-12-20T09:18:50;2.05;;;1.42;;
15764;SDS011;7983;50.744;7.086;2022-12-20T09:21:18;2.45;;;1.70;;
15764;SDS011;7983;50.744;7.086;2022-12-20T09:23:44;2.15;;;1.50;;
15764;SDS011;7983;50.744;7.086;2022-12-20T09:26:13;2.78;;;1.35;;
15764;SDS011;7983;50.744;7.086;2022-12-20T09:28:41;2.10;;;1.50;;
15764;SDS011;7983;50.744;7.086;2022-12-20T09:31:09;2.25;;;1.60;;
15764;SDS011;7983;50.744;7.086;2022-12-20T09:33:44;2.42;;;1.55;;
15764;SDS011;7983;50.744;7.086;2022-12-20T09:36:10;2.30;;;1.70;;
15764;SDS011;7983;50.744;7.086;2022-12-20T09:38:41;1.95;;;1.50;;
15764;SDS011;7983;50.744;7.086;2022-12-20T09:43:56;2.40;;;1.50;;
15764;SDS011;7983;50.744;7.086;2022-12-20T09:46:22;3.13;;;1.65;;
15764;SDS011;7983;50.744;7.086;2022-12-20T09:48:49;2.70;;;1.35;;
15764;SDS011;7983;50.744;7.086;2022-12-20T10:00:14;2.67;;;1.67;;
15764;SDS011;7983;50.744;7.086;2022-12-20T10:02:43;2.58;;;1.25;;
15764;SDS011;7983;50.744;7.086;2022-12-20T10:05:27;2.47;;;1.70;;
15764;SDS011;7983;50.744;7.086;2022-12-20T10:08:15;1.55;;;1.30;;
15764;SDS011;7983;50.744;7.086;2022-12-20T10:10:53;3.75;;;1.48;;
15764;SDS011;7983;50.744;7.086;2022-12-20T10:13:27;3.72;;;1.70;;
15764;SDS011;7983;50.744;7.086;2022-12-20T10:16:00;4.15;;;1.70;;
15764;SDS011;7983;50.744;7.086;2022-12-20T10:24:15;3.22;;;1.85;;
15764;SDS011;7983;50.744;7.086;2022-12-20T10:26:49;2.08;;;1.60;;
15764;SDS011;7983;50.744;7.086;2022-12-20T10:29:16;3.20;;;1.70;;
15764;SDS011;7983;50.744;7.086;2022-12-20T10:31:44;2.15;;;1.65;;
15764;SDS011;7983;50.744;7.086;2022-12-20T10:34:11;3.55;;;1.90;;
15764;SDS011;7983;50.744;7.086;2022-12-20T10:36:37;3.22;;;1.70;;
15764;SDS011;7983;50.744;7.086;2022-12-20T10:39:07;3.75;;;1.88;;
15764;SDS011;7983;50.744;7.086;2022-12-20T10:46:55;5.25;;;2.13;;
15764;SDS011;7983;50.744;7.086;2022-12-20T10:49:30;3.40;;;2.10;;
15764;SDS011;7983;50.744;7.086;2022-12-20T10:54:37;3.88;;;1.83;;
15764;SDS011;7983;50.744;7.086;2022-12-20T10:59:57;3.67;;;1.88;;
15764;SDS011;7983;50.744;7.086;2022-12-20T11:04:57;2.83;;;1.60;;
15764;SDS011;7983;50.744;7.086;2022-12-20T11:07:28;2.00;;;1.40;;
15764;SDS011;7983;50.744;7.086;2022-12-20T11:10:08;3.03;;;1.63;;
15764;SDS011;7983;50.744;7.086;2022-12-20T11:12:51;3.47;;;1.48;;
15764;SDS011;7983;50.744;7.086;2022-12-20T11:15:25;2.72;;;1.88;;
15764;SDS011;7983;50.744;7.086;2022-12-20T11:18:05;2.75;;;1.70;;
15764;SDS011;7983;50.744;7.086;2022-12-20T11:20:41;2.13;;;1.50;;
15764;SDS011;7983;50.744;7.086;2022-12-20T11:28:33;2.80;;;1.10;;
15764;SDS011;7983;50.744;7.086;2022-12-20T11:34:08;1.70;;;1.10;;
15764;SDS011;7983;50.744;7.086;2022-12-20T11:39:33;1.35;;;1.08;;
15764;SDS011;7983;50.744;7.086;2022-12-20T11:42:36;2.17;;;1.50;;
15764;SDS011;7983;50.744;7.086;2022-12-20T11:45:27;1.90;;;1.50;;
15764;SDS011;7983;50.744;7.086;2022-12-20T11:56:11;1.42;;;1.00;;
15764;SDS011;7983;50.744;7.086;2022-12-20T11:58:51;2.13;;;1.10;;
15764;SDS011;7983;50.744;7.086;2022-12-20T12:01:35;2.90;;;0.90;;
15764;SDS011;7983;50.744;7.086;2022-12-20T12:04:18;2.05;;;1.13;;
15764;SDS011;7983;50.744;7.086;2022-12-20T12:06:47;1.60;;;1.17;;
15764;SDS011;7983;50.744;7.086;2022-12-20T12:15:08;1.48;;;1.00;;
15764;SDS011;7983;50.744;7.086;2022-12-20T12:23:03;2.00;;;0.88;;
15764;SDS011;7983;50.744;7.086;2022-12-20T12:25:38;2.50;;;1.15;;
15764;SDS011;7983;50.744;7.086;2022-12-20T12:28:04;1.83;;;1.08;;
15764;SDS011;7983;50.744;7.086;2022-12-20T12:30:34;1.48;;;1.00;;
15764;SDS011;7983;50.744;7.086;2022-12-20T12:33:10;1.75;;;1.00;;
15764;SDS011;7983;50.744;7.086;2022-12-20T12:35:59;1.98;;;0.88;;
15764;SDS011;7983;50.744;7.086;2022-12-20T12:43:53;2.70;;;1.50;;
15764;SDS011;7983;50.744;7.086;2022-12-20T12:46:39;2.45;;;1.30;;
15764;SDS011;7983;50.744;7.086;2022-12-20T12:51:39;2.83;;;1.90;;
15764;SDS011;7983;50.744;7.086;2022-12-20T12:54:17;2.65;;;1.70;;
15764;SDS011;7983;50.744;7.086;2022-12-20T12:56:44;2.67;;;1.55;;
15764;SDS011;7983;50.744;7.086;2022-12-20T13:18:01;1.98;;;1.10;;
15764;SDS011;7983;50.744;7.086;2022-12-20T13:20:43;1.30;;;1.00;;
15764;SDS011;7983;50.744;7.086;2022-12-20T13:24:27;1.67;;;0.95;;
15764;SDS011;7983;50.744;7.086;2022-12-20T13:26:59;1.48;;;1.00;;
15764;SDS011;7983;50.744;7.086;2022-12-20T13:29:28;1.75;;;1.00;;
15764;SDS011;7983;50.744;7.086;2022-12-20T13:31:58;2.58;;;1.25;;
15764;SDS011;7983;50.744;7.086;2022-12-20T13:45:56;2.13;;;1.15;;
15764;SDS011;7983;50.744;7.086;2022-12-20T13:51:23;1.50;;;1.00;;
15764;SDS011;7983;50.744;7.086;2022-12-20T13:59:02;2.00;;;1.00;;
15764;SDS011;7983;50.744;7.086;2022-12-20T14:01:31;2.67;;;1.10;;
15764;SDS011;7983;50.744;7.086;2022-12-20T14:04:01;1.10;;;1.00;;
15764;SDS011;7983;50.744;7.086;2022-12-20T14:06:31;2.72;;;0.80;;
15764;SDS011;7983;50.744;7.086;2022-12-20T14:08:57;1.52;;;0.90;;
15764;SDS011;7983;50.744;7.086;2022-12-20T14:11:25;1.40;;;0.90;;
15764;SDS011;7983;50.744;7.086;2022-12-20T14:13:55;2.75;;;0.85;;
15764;SDS011;7983;50.744;7.086;2022-12-20T14:16:26;1.48;;;0.98;;
15764;SDS011;7983;50.744;7.086;2022-12-20T14:18:59;1.55;;;1.02;;
15764;SDS011;7983;50.744;7.086;2022-12-20T14:21:27;0.80;;;0.70;;
15764;SDS011;7983;50.744;7.086;2022-12-20T14:23:54;1.25;;;0.90;;
15764;SDS011;7983;50.744;7.086;2022-12-20T14:26:23;1.77;;;1.05;;
15764;SDS011;7983;50.744;7.086;2022-12-20T14:28:56;1.20;;;0.90;;
15764;SDS011;7983;50.744;7.086;2022-12-20T14:36:45;3.15;;;1.20;;
15764;SDS011;7983;50.744;7.086;2022-12-20T14:41:45;1.55;;;0.82;;
15764;SDS011;7983;50.744;7.086;2022-12-20T14:44:12;1.30;;;0.93;;
15764;SDS011;7983;50.744;7.086;2022-12-20T14:46:39;2.03;;;1.10;;
15764;SDS011;7983;50.744;7.086;2022-12-20T14:49:31;2.10;;;1.08;;
15764;SDS011;7983;50.744;7.086;2022-12-20T14:52:15;2.05;;;0.98;;
15764;SDS011;7983;50.744;7.086;2022-12-20T15:00:33;1.85;;;1.10;;
15764;SDS011;7983;50.744;7.086;2022-12-20T15:10:56;3.00;;;1.30;;
15764;SDS011;7983;50.744;7.086;2022-12-20T15:13:43;2.00;;;1.00;;
15764;SDS011;7983;50.744;7.086;2022-12-20T15:16:17;1.23;;;0.70;;
15764;SDS011;7983;50.744;7.086;2022-12-20T15:18:47;2.20;;;0.90;;
15764;SDS011;7983;50.744;7.086;2022-12-20T15:21:14;1.60;;;0.98;;
15764;SDS011;7983;50.744;7.086;2022-12-20T15:24:17;1.92;;;0.90;;
15764;SDS011;7983;50.744;7.086;2022-12-20T15:26:46;1.65;;;1.10;;
15764;SDS011;7983;50.744;7.086;2022-12-20T15:29:17;0.85;;;0.80;;
15764;SDS011;7983;50.744;7.086;2022-12-20T15:31:45;1.33;;;0.88;;
15764;SDS011;7983;50.744;7.086;2022-12-20T15:36:45;1.38;;;0.85;;
15764;SDS011;7983;50.744;7.086;2022-12-20T15:39:13;1.30;;;0.82;;
15764;SDS011;7983;50.744;7.086;2022-12-20T15:41:43;1.27;;;1.00;;
15764;SDS011;7983;50.744;7.086;2022-12-20T15:44:15;1.27;;;0.95;;
15764;SDS011;7983;50.744;7.086;2022-12-20T15:46:44;2.67;;;1.00;;
15764;SDS011;7983;50.744;7.086;2022-12-20T15:49:17;2.10;;;1.00;;
15764;SDS011;7983;50.744;7.086;2022-12-20T15:51:45;2.90;;;1.02;;
15764;SDS011;7983;50.744;7.086;2022-12-20T15:56:46;3.65;;;1.73;;
15764;SDS011;7983;50.744;7.086;2022-12-20T15:59:12;2.15;;;1.23;;
15764;SDS011;7983;50.744;7.086;2022-12-20T16:01:38;2.28;;;1.20;;
15764;SDS011;7983;50.744;7.086;2022-12-20T16:04:04;1.48;;;1.15;;
15764;SDS011;7983;50.744;7.086;2022-12-20T16:06:30;1.95;;;0.90;;
15764;SDS011;7983;50.744;7.086;2022-12-20T16:08:59;3.38;;;1.20;;
15764;SDS011;7983;50.744;7.086;2022-12-20T16:11:26;2.13;;;1.20;;
15764;SDS011;7983;50.744;7.086;2022-12-20T16:13:53;2.25;;;1.30;;
15764;SDS011;7983;50.744;7.086;2022-12-20T16:16:22;1.38;;;1.10;;
15764;SDS011;7983;50.744;7.086;2022-12-20T16:18:51;1.63;;;0.90;;
15764;SDS011;7983;50.744;7.086;2022-12-20T16:21:25;1.70;;;0.80;;
15764;SDS011;7983;50.744;7.086;2022-12-20T16:23:58;1.70;;;1.13;;
15764;SDS011;7983;50.744;7.086;2022-12-20T16:26:26;1.70;;;1.00;;
15764;SDS011;7983;50.744;7.086;2022-12-20T16:28:55;1.20;;;1.00;;
15764;SDS011;7983;50.744;7.086;2022-12-20T16:33:52;1.83;;;0.90;;
15764;SDS011;7983;50.744;7.086;2022-12-20T16:36:22;1.40;;;0.90;;
15764;SDS011;7983;50.744;7.086;2022-12-20T16:38:53;1.67;;;1.08;;
15764;SDS011;7983;50.744;7.086;2022-12-20T16:41:29;2.30;;;1.10;;
15764;SDS011;7983;50.744;7.086;2022-12-20T16:43:59;1.98;;;1.20;;
15764;SDS011;7983;50.744;7.086;2022-12-20T16:46:27;1.80;;;1.25;;
15764;SDS011;7983;50.744;7.086;2022-12-20T16:48:57;1.50;;;1.00;;
15764;SDS011;7983;50.744;7.086;2022-12-20T16:51:24;1.67;;;1.23;;
15764;SDS011;7983;50.744;7.086;2022-12-20T16:54:02;1.63;;;1.10;;
15764;SDS011;7983;50.744;7.086;2022-12-20T16:56:32;1.75;;;1.10;;
15764;SDS011;7983;50.744;7.086;2022-12-20T16:58:58;1.80;;;1.13;;
15764;SDS011;7983;50.744;7.086;2022-12-20T17:01:27;2.00;;;1.30;;
15764;SDS011;7983;50.744;7.086;2022-12-20T17:03:55;3.17;;;1.40;;
15764;SDS011;7983;50.744;7.086;2022-12-20T17:06:21;1.90;;;1.23;;
15764;SDS011;7983;50.744;7.086;2022-12-20T17:08:47;1.83;;;1.10;;
15764;SDS011;7983;50.744;7.086;2022-12-20T17:13:41;1.65;;;1.20;;
15764;SDS011;7983;50.744;7.086;2022-12-20T17:16:11;2.63;;;1.42;;
15764;SDS011;7983;50.744;7.086;2022-12-20T17:18:43;2.22;;;1.85;;
15764;SDS011;7983;50.744;7.086;2022-12-20T17:23:48;2.72;;;2.35;;
15764;SDS011;7983;50.744;7.086;2022-12-20T17:26:15;4.75;;;3.00;;
15764;SDS011;7983;50.744;7.086;2022-12-20T17:28:44;6.38;;;3.22;;
15764;SDS011;7983;50.744;7.086;2022-12-20T17:31:31;5.28;;;3.75;;
15764;SDS011;7983;50.744;7.086;2022-12-20T17:34:03;6.30;;;4.53;;
15764;SDS011;7983;50.744;7.086;2022-12-20T17:36:30;6.93;;;4.55;;
15764;SDS011;7983;50.744;7.086;2022-12-20T17:38:56;7.28;;;4.63;;
15764;SDS011;7983;50.744;7.086;2022-12-20T17:43:49;3.70;;;2.72;;
15764;SDS011;7983;50.744;7.086;2022-12-20T17:46:16;3.10;;;2.17;;
15764;SDS011;7983;50.744;7.086;2022-12-20T17:48:42;2.72;;;1.90;;
15764;SDS011;7983;50.744;7.086;2022-12-20T17:53:41;2.13;;;1.35;;
15764;SDS011;7983;50.744;7.086;2022-12-20T17:56:11;2.22;;;1.60;;
15764;SDS011;7983;50.744;7.086;2022-12-20T17:58:39;4.20;;;1.40;;
15764;SDS011;7983;50.744;7.086;2022-12-20T18:01:06;2.15;;;1.33;;